Terminal Aerodrome Forecast
Issued by NWS

Home | Current Version | Previous Version | Text Only | Print | Product List | Glossary On
Versions: 1 2 3 4 5 6 7 8 9 10 11 12 13 14 15
684
FTUS46 KLOX 070535
TAFPRB
TAF
KPRB 070535Z 0706/0806 10007KT P6SM SKC
     FM070800 VRB05KT P6SM SKC
     FM071300 VRB03KT 6SM BR SCT001
     FM071700 VRB05KT P6SM SKC
     FM072200 10010KT P6SM SKC
     FM080400 VRB05KT P6SM SKC=

USA.gov is the U.S. government's official web portal to all federal, state and local government web resources and services.